Time;durP1;ratioP1;P1;durP2;ratioP2;P2;SDS_P1;SDS_P2;PMS_P1;PMS_P2;Temp;Humidity;BMP_temperature;BMP_pressure;BME280_temperature;BME280_humidity;BME280_pressure;Samples;Min_cycle;Max_cycle;Signal;HPM_P1;HPM_P2
2021/10/26 00:00:35;;;;;;;21.37;8.77;;;;;;;2.20;58.41;101114.38;1802485;78;21122;-57
2021/10/26 00:03:01;;;;;;;17.67;8.83;;;;;;;2.20;58.37;101115.71;1780087;79;21281;-58
2021/10/26 00:05:27;;;;;;;20.27;9.37;;;;;;;2.22;58.28;101115.26;1779699;79;21100;-58
2021/10/26 00:07:54;;;;;;;22.50;9.23;;;;;;;2.23;58.27;101115.71;1778934;79;21185;-57
2021/10/26 00:10:20;;;;;;;20.83;9.43;;;;;;;2.23;58.26;101107.74;1777950;79;20918;-56
2021/10/26 00:12:47;;;;;;;19.40;8.90;;;;;;;2.24;58.26;101101.12;1780118;79;21113;-57
2021/10/26 00:15:13;;;;;;;19.57;9.70;;;;;;;2.26;58.19;101102.02;1780116;79;20934;-58
2021/10/26 00:17:39;;;;;;;23.27;9.47;;;;;;;2.26;58.14;101095.38;1781668;79;20901;-57
2021/10/26 00:20:06;;;;;;;18.57;8.00;;;;;;;2.27;58.15;101095.84;1784681;79;21388;-57
2021/10/26 00:22:34;;;;;;;19.43;7.83;;;;;;;2.27;58.18;101092.29;1780905;79;20874;-57
2021/10/26 00:25:01;;;;;;;18.77;8.70;;;;;;;2.26;58.20;101081.20;1782727;79;21073;-57
2021/10/26 00:27:28;;;;;;;18.90;8.23;;;;;;;2.25;58.21;101075.00;1782696;79;20937;-57
2021/10/26 00:29:54;;;;;;;18.60;8.53;;;;;;;2.26;58.21;101078.11;1781678;79;20902;-57
2021/10/26 00:32:20;;;;;;;19.03;8.20;;;;;;;2.27;58.21;101075.02;1782558;79;21200;-57
2021/10/26 00:34:47;;;;;;;16.97;7.77;;;;;;;2.27;58.23;101071.03;1778616;79;21440;-57
2021/10/26 00:37:14;;;;;;;16.13;7.60;;;;;;;2.27;58.26;101071.03;1781254;79;21574;-58
2021/10/26 00:39:41;;;;;;;21.10;10.10;;;;;;;2.26;58.28;101071.47;1782972;79;21467;-58
2021/10/26 00:42:11;;;;;;;19.30;8.70;;;;;;;2.26;58.32;101066.59;1780916;79;21044;-57
2021/10/26 00:44:38;;;;;;;18.53;8.67;;;;;;;2.27;58.32;101061.73;1781685;79;20961;-57
2021/10/26 00:47:04;;;;;;;22.23;8.70;;;;;;;2.28;58.36;101066.17;1786054;79;21029;-57
2021/10/26 00:49:33;;;;;;;16.17;8.77;;;;;;;2.28;58.36;101067.50;1777101;79;20985;-57
2021/10/26 00:51:59;;;;;;;20.47;8.93;;;;;;;2.30;58.38;101067.52;1783333;79;21073;-57
2021/10/26 00:54:28;;;;;;;17.83;8.93;;;;;;;2.29;58.40;101061.31;1780659;79;21147;-57
2021/10/26 00:56:56;;;;;;;17.63;8.40;;;;;;;2.31;58.41;101061.30;1780350;79;21064;-57
2021/10/26 00:59:23;;;;;;;18.60;8.47;;;;;;;2.30;58.45;101059.55;1778874;79;21060;-57
2021/10/26 01:01:50;;;;;;;17.43;8.13;;;;;;;2.28;58.46;101050.23;1780340;79;21102;-57
2021/10/26 01:04:18;;;;;;;17.40;8.03;;;;;;;2.30;58.48;101052.91;1780694;79;21065;-57
2021/10/26 01:06:46;;;;;;;22.27;7.47;;;;;;;2.28;58.44;101056.44;1780340;79;21497;-57
2021/10/26 01:09:13;;;;;;;21.03;8.40;;;;;;;2.28;58.42;101062.19;1776286;79;21594;-57
2021/10/26 01:11:39;;;;;;;18.97;7.90;;;;;;;2.28;58.45;101054.22;1756648;79;21566;-56
2021/10/26 01:14:07;;;;;;;16.27;8.47;;;;;;;2.28;58.46;101052.45;1779363;79;21053;-57
2021/10/26 01:16:35;;;;;;;15.70;7.90;;;;;;;2.26;58.49;101052.88;1778998;79;22171;-57
2021/10/26 01:19:01;;;;;;;14.20;7.43;;;;;;;2.26;58.54;101048.00;1778045;79;21534;-57
2021/10/26 01:21:29;;;;;;;20.83;8.13;;;;;;;2.24;58.57;101047.98;1780712;79;21557;-57
2021/10/26 01:23:56;;;;;;;13.83;7.77;;;;;;;2.24;58.64;101049.31;1755283;79;21156;-57
2021/10/26 01:26:23;;;;;;;20.30;8.97;;;;;;;2.24;58.63;101043.11;1777796;79;22513;-57
2021/10/26 01:28:50;;;;;;;20.30;10.30;;;;;;;2.22;58.71;101047.08;1779390;79;21041;-58
2021/10/26 01:31:16;;;;;;;18.20;10.07;;;;;;;2.23;58.77;101045.31;1782486;79;21418;-58
2021/10/26 01:34:01;;;;;;;20.95;10.95;;;;;;;2.22;58.76;101045.75;1776604;79;21048;-56
2021/10/26 01:36:32;;;;;;;18.23;12.20;;;;;;;2.21;58.84;101046.63;1779891;79;20965;-56
2021/10/26 01:38:58;;;;;;;23.03;11.80;;;;;;;2.22;58.88;101048.41;1779400;79;21090;-56
2021/10/26 01:41:25;;;;;;;17.17;9.07;;;;;;;2.23;58.89;101047.97;1781843;79;21032;-56
2021/10/26 01:43:53;;;;;;;15.07;8.20;;;;;;;2.23;58.91;101041.33;1782626;79;21052;-56
2021/10/26 01:46:21;;;;;;;16.43;7.30;;;;;;;2.24;58.90;101036.03;1782016;79;21077;-56
2021/10/26 01:48:47;;;;;;;16.13;8.43;;;;;;;2.25;58.89;101039.58;1780859;79;21590;-56
2021/10/26 01:51:15;;;;;;;16.17;7.33;;;;;;;2.25;58.87;101040.91;1784867;79;23241;-56
2021/10/26 01:53:42;;;;;;;14.47;6.23;;;;;;;2.24;58.86;101040.02;1777271;79;21346;-55
2021/10/26 01:56:10;;;;;;;19.73;10.20;;;;;;;2.25;58.88;101041.80;1777774;79;21828;-55
2021/10/26 01:58:44;;;;;;;22.50;11.45;;;;;;;2.25;58.87;101034.27;1780043;79;21049;-55
2021/10/26 02:01:15;;;;;;;21.57;12.50;;;;;;;2.25;58.88;101031.16;1785356;79;21452;-55
2021/10/26 02:03:42;;;;;;;31.90;15.30;;;;;;;2.25;58.87;101035.59;1787769;79;21060;-55
2021/10/26 02:06:08;;;;;;;28.87;14.37;;;;;;;2.24;58.86;101036.03;1785964;79;21479;-56
2021/10/26 02:08:35;;;;;;;32.97;18.43;;;;;;;2.22;58.92;101029.81;1784916;79;21677;-55
2021/10/26 02:11:03;;;;;;;23.00;14.40;;;;;;;2.21;58.93;101025.38;1779195;79;21104;-56
2021/10/26 02:13:30;;;;;;;33.00;18.17;;;;;;;2.21;58.97;101028.50;1780729;79;22558;-56
2021/10/26 02:15:56;;;;;;;27.47;17.87;;;;;;;2.20;58.97;101038.23;1776460;79;21606;-55
2021/10/26 02:18:23;;;;;;;32.30;17.07;;;;;;;2.19;58.97;101028.48;1776317;79;21500;-56
2021/10/26 02:20:51;;;;;;;19.40;12.37;;;;;;;2.18;58.98;101027.14;1779843;79;21091;-55
2021/10/26 02:23:17;;;;;;;19.73;11.40;;;;;;;2.16;59.04;101029.78;1777180;79;21083;-56
2021/10/26 02:25:44;;;;;;;15.37;9.20;;;;;;;2.16;59.06;101042.17;1783571;79;21765;-55
2021/10/26 02:30:49;;;;;;;16.77;9.70;;;;;;;2.16;59.15;101028.45;1851684;75;27292;-56
2021/10/26 02:33:15;;;;;;;13.83;7.80;;;;;;;2.13;59.17;101029.75;1790163;77;20937;-56
2021/10/26 02:35:42;;;;;;;18.10;7.17;;;;;;;2.12;59.20;101024.45;1788833;79;21147;-55
2021/10/26 02:38:10;;;;;;;16.53;6.77;;;;;;;2.12;59.23;101020.47;1786370;78;21080;-57
2021/10/26 02:40:38;;;;;;;11.70;6.33;;;;;;;2.10;59.27;101020.90;1785983;79;22016;-56
2021/10/26 02:43:04;;;;;;;16.17;8.37;;;;;;;2.08;59.29;101020.88;1786538;79;20950;-57
2021/10/26 02:45:31;;;;;;;13.80;6.97;;;;;;;2.06;59.34;101019.97;1787775;79;21601;-56
2021/10/26 02:47:59;;;;;;;15.07;7.60;;;;;;;2.04;59.35;101012.42;1785028;79;21276;-56
2021/10/26 02:50:26;;;;;;;12.57;6.83;;;;;;;2.02;59.36;101008.01;1787204;79;20985;-56
2021/10/26 02:52:52;;;;;;;14.00;7.23;;;;;;;2.00;59.41;101003.13;1784406;79;21008;-56
2021/10/26 02:55:19;;;;;;;19.03;7.30;;;;;;;1.96;59.48;101004.85;1793850;79;21080;-56
2021/10/26 02:57:46;;;;;;;12.90;6.07;;;;;;;1.94;59.55;101009.29;1785289;77;21076;-56
2021/10/26 03:00:13;;;;;;;15.33;7.87;;;;;;;1.92;59.61;101006.16;1788105;79;21673;-55
2021/10/26 03:02:40;;;;;;;18.13;7.40;;;;;;;1.88;59.68;100998.17;1787653;77;22445;-56
2021/10/26 03:05:08;;;;;;;15.43;7.20;;;;;;;1.88;59.74;101010.55;1786184;78;21406;-56
2021/10/26 03:07:40;;;;;;;21.30;7.83;;;;;;;1.85;59.79;100999.94;1788760;79;20906;-55
2021/10/26 03:10:07;;;;;;;22.23;7.80;;;;;;;1.83;59.82;101001.25;1788426;79;20855;-55
2021/10/26 03:12:34;;;;;;;14.37;7.13;;;;;;;1.82;59.87;100995.92;1788640;79;21544;-56
2021/10/26 03:15:00;;;;;;;15.77;7.63;;;;;;;1.80;59.96;100989.27;1792198;79;20898;-56
2021/10/26 03:17:27;;;;;;;13.90;6.90;;;;;;;1.78;59.97;100995.03;1786989;79;20945;-55
2021/10/26 03:20:06;;;;;;;17.43;7.33;;;;;;;1.77;60.01;100991.92;1787394;78;21439;-56
2021/10/26 03:22:32;;;;;;;14.57;8.27;;;;;;;1.77;60.09;100981.73;1793078;77;20855;-56
2021/10/26 03:24:58;;;;;;;32.37;9.77;;;;;;;1.75;60.13;100989.69;1789701;77;21064;-56
2021/10/26 03:27:26;;;;;;;20.27;7.93;;;;;;;1.75;60.21;100988.80;1739751;81;20957;-57
2021/10/26 03:29:53;;;;;;;13.77;7.17;;;;;;;1.73;60.26;100983.91;1742577;80;21047;-57
2021/10/26 03:32:19;;;;;;;17.97;7.87;;;;;;;1.70;60.34;100985.23;1743038;81;21667;-56
2021/10/26 03:35:04;;;;;;;16.48;8.43;;;;;;;1.70;60.41;100980.78;1755163;80;20929;-56
2021/10/26 03:37:32;;;;;;;15.77;7.00;;;;;;;1.69;60.41;100984.34;1735489;81;21711;-56
2021/10/26 03:39:58;;;;;;;15.33;8.07;;;;;;;1.68;60.47;100984.33;1737707;81;20938;-56
2021/10/26 03:42:25;;;;;;;15.27;7.23;;;;;;;1.68;60.50;100980.34;1733031;81;20914;-56
2021/10/26 03:44:52;;;;;;;18.73;8.87;;;;;;;1.66;60.52;100977.67;1702587;81;21325;-57
2021/10/26 03:47:21;;;;;;;15.43;6.47;;;;;;;1.65;60.55;100975.00;1728500;79;21291;-57
2021/10/26 03:49:48;;;;;;;15.30;7.97;;;;;;;1.63;60.59;100972.77;1737163;81;22219;-55
2021/10/26 03:52:14;;;;;;;15.70;7.83;;;;;;;1.60;60.66;100977.64;1733051;81;21767;-56
2021/10/26 03:54:41;;;;;;;14.50;6.77;;;;;;;1.59;60.67;100973.64;1732122;81;21071;-56
2021/10/26 03:57:12;;;;;;;10.97;6.50;;;;;;;1.58;60.70;100968.77;1732236;81;21163;-56
2021/10/26 03:59:38;;;;;;;13.70;7.80;;;;;;;1.56;60.76;100968.30;1734811;80;21412;-57
2021/10/26 04:02:22;;;;;;;17.63;8.00;;;;;;;1.55;60.83;100966.52;1733591;81;22213;-57
2021/10/26 04:04:33;;;;;;;18.40;9.50;;;;;;;1.53;60.85;100968.30;1730450;81;20996;-56
2021/10/26 04:07:01;;;;;;;14.23;7.07;;;;;;;1.51;60.88;100963.86;1737149;81;20918;-57
2021/10/26 04:09:44;;;;;;;14.73;8.43;;;;;;;1.50;60.90;100964.73;1738261;81;21439;-57
2021/10/26 04:14:44;;;;;;;16.00;8.25;;;;;;;1.48;60.97;100973.55;1733879;81;21511;-57
2021/10/26 04:17:12;;;;;;;15.13;8.17;;;;;;;1.48;60.97;100970.90;1731585;81;21333;-56
2021/10/26 04:19:40;;;;;;;15.53;7.57;;;;;;;1.46;61.01;100972.64;1739260;80;20981;-56
2021/10/26 04:22:08;;;;;;;14.40;7.90;;;;;;;1.44;61.06;100963.38;1734641;80;20887;-56
2021/10/26 04:24:35;;;;;;;14.43;7.80;;;;;;;1.43;61.07;100964.24;1735621;81;21037;-55
2021/10/26 04:27:01;;;;;;;16.47;8.17;;;;;;;1.41;61.12;100977.04;1731315;81;21747;-56
2021/10/26 04:29:28;;;;;;;21.40;8.70;;;;;;;1.39;61.17;100979.67;1732619;79;21092;-56
2021/10/26 04:31:54;;;;;;;54.93;10.17;;;;;;;1.36;61.21;100978.31;1734222;81;20997;-56
2021/10/26 04:34:23;;;;;;;18.87;7.77;;;;;;;1.35;61.27;100979.21;1738384;81;20957;-56
2021/10/26 04:36:49;;;;;;;15.57;6.57;;;;;;;1.33;61.37;100982.72;1738133;81;21076;-57
2021/10/26 04:39:16;;;;;;;17.23;7.33;;;;;;;1.31;61.43;100977.39;1718731;81;23209;-56
2021/10/26 04:41:42;;;;;;;13.27;6.63;;;;;;;1.28;61.50;100980.01;1739104;81;21615;-56
2021/10/26 04:44:09;;;;;;;14.87;7.33;;;;;;;1.28;61.54;100976.03;1735983;81;21128;-57
2021/10/26 04:46:35;;;;;;;14.57;7.20;;;;;;;1.28;61.65;100982.66;1739673;81;21574;-56
2021/10/26 04:49:02;;;;;;;18.47;8.10;;;;;;;1.28;61.68;100980.44;1737582;81;21562;-56
2021/10/26 04:51:28;;;;;;;14.87;8.17;;;;;;;1.26;61.73;100983.11;1739641;81;21449;-56
2021/10/26 04:53:54;;;;;;;19.23;9.20;;;;;;;1.28;61.79;100984.42;1734253;81;21096;-56
2021/10/26 04:56:21;;;;;;;20.10;8.97;;;;;;;1.27;61.81;100976.05;1733898;81;21044;-57
2021/10/26 04:58:49;;;;;;;17.00;8.57;;;;;;;1.28;61.83;100983.09;1709392;81;21700;-56
2021/10/26 05:01:16;;;;;;;18.33;8.43;;;;;;;1.29;61.85;100984.44;1737687;81;22403;-57
2021/10/26 05:03:43;;;;;;;12.17;7.30;;;;;;;1.28;61.90;100978.68;1735576;81;21551;-56
2021/10/26 05:06:10;;;;;;;18.07;7.37;;;;;;;1.30;61.94;100986.22;1734253;81;22353;-56
2021/10/26 05:08:36;;;;;;;14.50;7.50;;;;;;;1.32;61.98;100988.46;1736151;81;21495;-57
2021/10/26 05:11:04;;;;;;;15.23;6.87;;;;;;;1.35;62.00;100987.61;1737009;81;21462;-55
2021/10/26 05:13:32;;;;;;;16.43;7.40;;;;;;;1.40;61.98;100988.52;1732355;81;21056;-57
2021/10/26 05:16:16;;;;;;;13.73;7.27;;;;;;;1.46;61.95;100989.45;1665689;84;21640;-56
2021/10/26 05:19:03;;;;;;;16.70;7.20;;;;;;;1.53;61.88;100990.42;1720770;81;21119;-56
2021/10/26 05:21:48;;;;;;;15.73;7.40;;;;;;;1.61;61.81;100982.52;1738531;81;21099;-57
2021/10/26 05:24:20;;;;;;;21.50;7.77;;;;;;;1.68;61.67;100979.02;1726818;81;21535;-56
2021/10/26 05:26:48;;;;;;;18.53;7.73;;;;;;;1.75;61.56;100987.03;1737902;81;21052;-57
2021/10/26 05:29:15;;;;;;;19.93;8.03;;;;;;;1.81;61.46;100987.06;1707935;81;21802;-57
2021/10/26 05:31:41;;;;;;;12.50;7.10;;;;;;;1.87;61.32;100983.59;1731365;81;21371;-57
2021/10/26 05:34:09;;;;;;;21.70;8.37;;;;;;;1.95;61.21;100986.28;1733027;81;21135;-56
2021/10/26 05:36:38;;;;;;;15.30;8.03;;;;;;;2.00;61.07;100985.86;1732733;81;21112;-55
2021/10/26 05:39:09;;;;;;;17.23;7.83;;;;;;;2.03;60.98;100993.42;1733941;80;21120;-57
2021/10/26 05:41:36;;;;;;;14.30;7.50;;;;;;;2.10;60.85;100996.98;1736075;80;21139;-58
2021/10/26 05:44:04;;;;;;;14.57;6.00;;;;;;;2.14;60.75;100994.78;1728976;81;21136;-56
2021/10/26 05:46:32;;;;;;;13.23;6.83;;;;;;;2.17;60.69;100995.70;1731275;81;21100;-56
2021/10/26 05:49:00;;;;;;;13.40;7.87;;;;;;;2.21;60.58;100993.96;1731734;81;21104;-56
2021/10/26 05:51:26;;;;;;;11.67;7.07;;;;;;;2.26;60.52;100997.52;1733932;80;21120;-58
2021/10/26 05:53:54;;;;;;;15.37;7.27;;;;;;;2.29;60.48;100996.22;1733821;81;21447;-57
2021/10/26 05:56:20;;;;;;;14.20;6.60;;;;;;;2.32;60.48;100989.56;1735287;81;22082;-56
2021/10/26 05:58:47;;;;;;;13.20;5.97;;;;;;;2.37;60.46;100997.14;1733614;81;21041;-56
2021/10/26 06:01:14;;;;;;;12.57;7.27;;;;;;;2.43;60.44;100993.61;1731052;79;21072;-56
2021/10/26 06:03:41;;;;;;;15.57;7.23;;;;;;;2.51;60.39;100999.84;1733993;80;20915;-58
2021/10/26 06:06:07;;;;;;;16.80;6.13;;;;;;;2.59;60.34;101000.77;1734568;81;21120;-56
2021/10/26 06:08:34;;;;;;;14.73;6.03;;;;;;;2.68;60.27;100999.91;1732459;81;22503;-56
2021/10/26 06:11:22;;;;;;;16.37;6.93;;;;;;;2.77;60.17;100998.17;1729826;81;21391;-58
2021/10/26 06:13:35;;;;;;;13.80;6.30;;;;;;;2.86;60.06;101005.30;1723231;81;21135;-54
2021/10/26 06:16:01;;;;;;;15.00;6.70;;;;;;;2.95;59.83;101009.30;1687694;80;20950;-55
2021/10/26 06:18:27;;;;;;;9.37;5.93;;;;;;;3.04;59.73;101002.23;1735677;81;21128;-57
2021/10/26 06:20:53;;;;;;;11.77;7.33;;;;;;;3.13;59.56;101001.38;1739785;80;20977;-57
2021/10/26 06:23:20;;;;;;;18.20;9.73;;;;;;;3.22;59.44;100999.17;1709330;81;20926;-56
2021/10/26 06:25:46;;;;;;;19.87;9.23;;;;;;;3.31;59.25;101006.72;1735482;81;20973;-58
2021/10/26 06:28:14;;;;;;;15.93;8.87;;;;;;;3.40;59.19;101013.36;1733311;79;20989;-58
2021/10/26 06:30:41;;;;;;;16.87;7.70;;;;;;;3.48;59.07;101008.06;1726347;81;21411;-56
2021/10/26 06:33:09;;;;;;;15.57;7.23;;;;;;;3.56;58.95;100999.64;1743899;81;20913;-55
2021/10/26 06:35:38;;;;;;;13.87;7.53;;;;;;;3.66;58.90;100997.39;1740848;81;21474;-57
2021/10/26 06:38:04;;;;;;;15.53;6.47;;;;;;;3.75;58.78;101002.70;1744123;81;20944;-57
2021/10/26 06:40:34;;;;;;;14.73;6.37;;;;;;;3.85;58.69;101000.04;1738571;81;20920;-58
2021/10/26 06:43:19;;;;;;;12.82;5.83;;;;;;;3.93;58.54;100996.47;1729536;80;21086;-58
2021/10/26 06:46:04;;;;;;;8.47;5.57;;;;;;;4.04;58.41;100988.03;1760028;80;21159;-56
2021/10/26 06:48:49;;;;;;;;;;;;;;;4.15;58.33;100982.68;1763411;80;21538;-58
2021/10/26 06:51:34;;;;;;;11.03;5.07;;;;;;;4.26;58.19;100989.28;1726493;81;20291;-55
2021/10/26 06:54:19;;;;;;;7.53;4.67;;;;;;;4.35;58.00;100984.81;1734648;81;21396;-57
2021/10/26 06:57:04;;;;;;;;;;;;;;;4.43;57.99;100987.01;1761319;80;21605;-56
2021/10/26 06:59:49;;;;;;;11.10;4.73;;;;;;;4.53;57.87;100980.75;1727640;81;21669;-58
2021/10/26 07:02:44;;;;;;;12.65;5.62;;;;;;;4.63;57.76;100980.27;1731880;81;21087;-58
2021/10/26 07:05:19;;;;;;;8.03;4.87;;;;;;;4.74;57.68;100985.56;1679801;80;21055;-57
2021/10/26 07:07:48;;;;;;;6.63;4.10;;;;;;;4.85;57.52;100970.36;1732643;81;21157;-55
2021/10/26 07:10:17;;;;;;;7.83;4.60;;;;;;;4.93;57.44;100966.75;1757509;80;22459;-56
2021/10/26 07:12:58;;;;;;;5.40;3.37;;;;;;;5.03;57.25;100973.37;1739283;81;21155;-58
2021/10/26 07:15:29;;;;;;;8.73;4.40;;;;;;;5.14;57.18;100969.75;1734885;81;21119;-58
2021/10/26 07:17:54;;;;;;;9.03;3.77;;;;;;;5.24;57.14;100966.12;1736313;81;21108;-57
2021/10/26 07:20:21;;;;;;;7.03;3.73;;;;;;;5.36;56.96;100952.25;1736111;81;21104;-56
2021/10/26 07:23:07;;;;;;;7.57;4.07;;;;;;;5.46;56.68;100953.47;1697742;83;22316;-57
2021/10/26 07:25:54;;;;;;;4.80;3.00;;;;;;;5.57;56.47;100954.27;1701879;83;22736;-57
2021/10/26 07:28:22;;;;;;;7.23;3.67;;;;;;;5.68;56.33;100943.05;1671712;85;21108;-55
2021/10/26 07:30:49;;;;;;;4.20;2.90;;;;;;;5.79;56.20;100946.93;1707728;78;21422;-58
2021/10/26 07:33:22;;;;;;;8.03;3.67;;;;;;;5.89;55.88;100944.64;1765985;78;20947;-57
2021/10/26 07:35:52;;;;;;;6.17;3.87;;;;;;;5.99;55.81;100936.97;1770997;78;21144;-56
2021/10/26 07:38:29;;;;;;;4.10;2.37;;;;;;;6.12;55.56;100944.87;1771301;78;22811;-57
2021/10/26 07:40:46;;;;;;;4.77;2.77;;;;;;;6.21;55.45;100937.59;1768331;78;21058;-58
2021/10/26 07:43:14;;;;;;;6.33;3.70;;;;;;;6.32;55.30;100944.16;1721881;78;21818;-56
2021/10/26 07:45:48;;;;;;;7.15;2.52;;;;;;;6.40;54.79;100936.48;1740034;78;21881;-56
2021/10/26 07:48:14;;;;;;;7.83;2.87;;;;;;;6.51;54.72;100947.50;1766431;78;21218;-56
2021/10/26 07:50:42;;;;;;;6.40;2.70;;;;;;;6.59;54.44;100929.56;1767956;78;21121;-59
2021/10/26 07:53:09;;;;;;;7.43;3.47;;;;;;;6.68;54.31;100916.06;1769141;78;21093;-58
2021/10/26 07:55:37;;;;;;;3.10;2.50;;;;;;;6.76;53.87;100923.52;1750859;78;21144;-58
2021/10/26 07:58:06;;;;;;;9.30;3.43;;;;;;;6.84;53.65;100925.19;1773680;78;21086;-58
2021/10/26 08:00:33;;;;;;;5.47;3.13;;;;;;;6.92;53.34;100913.47;1766372;78;21145;-58
2021/10/26 08:03:18;;;;;;;4.83;3.00;;;;;;;7.00;53.17;100919.14;1775674;78;21046;-58
2021/10/26 08:05:50;;;;;;;9.63;3.10;;;;;;;7.09;52.95;100910.97;1766492;78;20951;-59
2021/10/26 08:08:17;;;;;;;3.30;2.30;;;;;;;7.20;53.02;100912.16;1767456;78;22056;-58
2021/10/26 08:10:45;;;;;;;6.47;2.80;;;;;;;7.31;52.73;100918.68;1766728;78;21084;-59
2021/10/26 08:13:12;;;;;;;9.77;2.80;;;;;;;7.41;52.49;100910.44;1769512;78;22263;-56
2021/10/26 08:15:39;;;;;;;6.13;2.97;;;;;;;7.49;52.02;100905.83;1767808;78;21065;-57
2021/10/26 08:18:05;;;;;;;6.43;3.20;;;;;;;7.57;51.67;100912.42;1773696;78;21022;-58
2021/10/26 08:20:31;;;;;;;14.40;2.77;;;;;;;7.64;51.51;100910.52;1748484;78;20990;-59
2021/10/26 08:22:58;;;;;;;6.73;2.53;;;;;;;7.71;51.18;100905.47;1772509;78;21025;-58
2021/10/26 08:25:28;;;;;;;5.70;3.60;;;;;;;7.80;50.86;100906.64;1773136;78;22185;-58
2021/10/26 08:27:55;;;;;;;3.17;2.07;;;;;;;7.87;50.55;100900.24;1771155;78;20939;-57
2021/10/26 08:33:01;;;;;;;4.50;2.80;;;;;;;8.02;50.32;100903.96;1766451;78;21061;-59
2021/10/26 08:35:25;;;;;;;11.67;5.50;;;;;;;8.09;49.93;100910.97;1771682;78;20923;-58
2021/10/26 08:37:58;;;;;;;5.73;4.10;;;;;;;8.13;49.79;100900.63;1766858;78;21853;-59
2021/10/26 08:40:28;;;;;;;9.23;3.80;;;;;;;8.17;49.71;100894.27;1750481;78;20946;-59
2021/10/26 08:45:08;;;;;;;6.20;3.57;;;;;;;8.30;49.69;100894.91;1775894;78;23305;-59
2021/10/26 08:47:37;;;;;;;6.30;3.07;;;;;;;8.30;49.45;100898.48;1739455;80;21017;-59
2021/10/26 08:50:06;;;;;;;7.60;2.97;;;;;;;8.35;49.50;100893.04;1737187;80;22701;-59
2021/10/26 08:52:35;;;;;;;6.27;4.27;;;;;;;8.38;49.50;100888.95;1737193;80;21228;-59
2021/10/26 08:55:06;;;;;;;4.47;4.07;;;;;;;8.43;49.42;100891.07;1744528;80;21101;-61
2021/10/26 08:57:34;;;;;;;4.73;3.50;;;;;;;8.49;49.43;100886.05;1700366;80;21389;-58
2021/10/26 09:00:07;;;;;;;6.00;3.77;;;;;;;8.53;49.29;100887.73;1738315;80;21413;-58
2021/10/26 09:02:41;;;;;;;7.60;2.73;;;;;;;8.60;49.27;100890.25;1671991;81;22484;-60
2021/10/26 09:05:11;;;;;;;5.73;2.33;;;;;;;8.68;48.78;100882.02;1701493;81;21104;-57
2021/10/26 09:07:37;;;;;;;20.67;3.17;;;;;;;8.73;48.53;100886.39;1677833;81;20982;-59
2021/10/26 09:10:12;;;;;;;6.23;2.07;;;;;;;8.81;48.02;100896.06;1673781;81;20909;-58
2021/10/26 09:19:18;;;;;;;5.13;2.57;;;;;;;8.98;47.00;100874.61;1691876;81;21017;-58
2021/10/26 09:21:57;;;;;;;;;;;;;;;9.00;46.86;100871.89;1706299;81;20926;-59
2021/10/26 09:24:24;;;;;;;4.50;1.50;;;;;;;9.03;47.31;100870.46;1697488;82;20425;-59
2021/10/26 09:26:54;;;;;;;2.33;1.77;;;;;;;9.09;47.17;100869.88;1690156;82;21469;-58
2021/10/26 09:29:41;;;;;;;2.57;2.37;;;;;;;9.16;47.32;100870.60;1695707;82;21504;-57
2021/10/26 09:32:10;;;;;;;12.03;2.67;;;;;;;9.23;46.98;100869.98;1683831;82;20911;-59
2021/10/26 09:34:50;;;;;;;3.83;2.50;;;;;;;9.30;46.77;100875.62;1674450;84;21021;-57
2021/10/26 09:37:17;;;;;;;7.63;2.33;;;;;;;9.35;46.47;100865.20;1673559;84;20950;-58
2021/10/26 09:39:52;;;;;;;7.50;2.00;;;;;;;9.41;46.08;100870.41;1676546;84;20974;-60
2021/10/26 09:42:19;;;;;;;2.60;1.60;;;;;;;9.44;45.61;100854.17;1676314;84;21109;-58
2021/10/26 09:44:49;;;;;;;2.67;1.30;;;;;;;9.47;45.66;100854.11;1664867;84;21620;-56
2021/10/26 09:47:24;;;;;;;11.57;2.33;;;;;;;9.52;45.24;100850.44;1655300;85;21120;-58
2021/10/26 09:50:01;;;;;;;2.20;1.40;;;;;;;9.54;45.21;100844.53;1679688;84;21082;-58
2021/10/26 09:52:33;;;;;;;2.73;1.73;;;;;;;9.57;45.06;100846.69;1659789;85;21828;-59
2021/10/26 09:55:18;;;;;;;3.47;1.43;;;;;;;9.59;44.94;100839.47;1652421;85;21163;-58
2021/10/26 09:57:56;;;;;;;2.33;1.42;;;;;;;9.63;45.04;100833.53;1673360;84;22106;-59
2021/10/26 10:00:30;;;;;;;2.70;1.20;;;;;;;9.67;44.80;100828.51;1685307;83;20902;-58
2021/10/26 10:03:05;;;;;;;4.33;1.50;;;;;;;9.68;44.69;100821.75;1674136;84;21069;-56
2021/10/26 10:05:38;;;;;;;5.80;2.17;;;;;;;9.72;44.83;100825.22;1678565;83;21120;-57
2021/10/26 10:08:29;;;;;;;7.80;1.70;;;;;;;9.75;44.54;100821.11;1672416;85;22160;-59
2021/10/26 10:11:17;;;;;;;1.83;1.10;;;;;;;9.78;44.29;100820.55;1666532;84;21117;-56
2021/10/26 10:13:52;;;;;;;2.17;1.17;;;;;;;9.82;44.25;100811.94;1685016;83;21025;-59
2021/10/26 10:16:20;;;;;;;1.22;0.90;;;;;;;9.84;43.97;100810.98;1673164;83;21323;-59
2021/10/26 10:18:47;;;;;;;5.37;1.25;;;;;;;9.87;43.55;100802.80;1684791;83;20941;-58
2021/10/26 10:21:25;;;;;;;5.72;1.20;;;;;;;9.88;43.42;100801.88;1675759;84;21124;-58
2021/10/26 10:23:54;;;;;;;3.10;1.30;;;;;;;9.91;43.35;100804.95;1686010;83;21026;-57
2021/10/26 10:26:27;;;;;;;4.33;1.50;;;;;;;9.92;42.89;100795.97;1663719;83;20942;-59
2021/10/26 10:28:53;;;;;;;8.60;1.70;;;;;;;9.92;42.51;100790.59;1674823;84;21122;-58
2021/10/26 10:31:23;;;;;;;3.00;2.20;;;;;;;9.92;42.76;100785.67;1683194;83;21088;-59
2021/10/26 10:33:49;;;;;;;3.17;1.53;;;;;;;9.93;42.76;100772.64;1664364;83;22045;-61
2021/10/26 10:36:17;;;;;;;2.90;1.75;;;;;;;9.96;42.81;100771.19;1671313;84;22257;-60
2021/10/26 10:38:44;;;;;;;4.47;1.20;;;;;;;9.96;42.87;100774.77;1666548;83;21116;-60
2021/10/26 10:41:36;;;;;;;4.63;1.10;;;;;;;9.99;42.94;100771.11;1679359;83;20945;-59
2021/10/26 10:44:08;;;;;;;2.67;1.20;;;;;;;10.02;42.91;100770.57;1659717;85;21194;-59
2021/10/26 10:46:41;;;;;;;2.27;1.00;;;;;;;10.06;42.79;100753.85;1660220;83;21161;-60
2021/10/26 10:49:27;;;;;;;2.95;1.20;;;;;;;10.09;42.14;100757.81;1674173;83;21057;-58
2021/10/26 10:51:58;;;;;;;5.05;1.15;;;;;;;10.09;41.93;100758.69;1655298;85;21120;-59
2021/10/26 10:54:43;;;;;;;1.40;0.90;;;;;;;10.09;41.83;100753.77;1673501;84;21093;-60
2021/10/26 10:57:28;;;;;;;2.50;1.00;;;;;;;10.08;41.82;100746.63;1653961;84;21102;-58
2021/10/26 10:59:57;;;;;;;1.45;0.93;;;;;;;10.09;41.99;100743.89;1654416;85;21475;-58
2021/10/26 11:02:35;;;;;;;2.95;1.30;;;;;;;10.09;41.76;100733.59;1661922;84;20999;-56
2021/10/26 11:05:04;;;;;;;6.80;1.30;;;;;;;10.08;41.80;100731.83;1634979;85;21087;-56
2021/10/26 11:07:50;;;;;;;7.03;0.98;;;;;;;10.09;41.77;100729.56;1682600;83;22140;-58
2021/10/26 11:10:19;;;;;;;1.70;1.12;;;;;;;10.10;41.90;100721.91;1674728;84;21093;-56
2021/10/26 11:12:46;;;;;;;1.90;0.77;;;;;;;10.12;41.62;100722.26;1656637;85;22239;-58
2021/10/26 11:15:21;;;;;;;1.40;0.90;;;;;;;10.16;41.63;100719.91;1659025;85;21106;-57
2021/10/26 11:17:52;;;;;;;1.95;0.80;;;;;;;10.20;41.25;100726.13;1684712;83;21068;-58
2021/10/26 11:20:37;;;;;;;3.15;0.98;;;;;;;10.23;40.80;100716.13;1657605;84;21084;-58
2021/10/26 11:23:05;;;;;;;1.40;0.90;;;;;;;10.24;40.38;100715.20;1673033;84;21097;-59
2021/10/26 11:25:43;;;;;;;5.65;1.27;;;;;;;10.26;40.19;100704.39;1683115;83;21124;-59
2021/10/26 11:28:20;;;;;;;3.92;0.80;;;;;;;10.27;40.10;100712.00;1676926;83;21428;-57
2021/10/26 11:30:56;;;;;;;2.72;1.05;;;;;;;10.28;39.94;100703.89;1685818;83;21339;-59
2021/10/26 11:33:29;;;;;;;1.72;1.00;;;;;;;10.29;40.07;100695.35;1670493;84;21160;-59
2021/10/26 11:36:02;;;;;;;2.45;1.30;;;;;;;10.29;40.01;100698.92;1628809;84;21067;-58
2021/10/26 11:38:34;;;;;;;3.10;1.25;;;;;;;10.29;39.90;100693.55;1679143;84;22480;-58
2021/10/26 11:41:08;;;;;;;5.12;1.40;;;;;;;10.32;39.81;100701.95;1675026;83;21160;-59
2021/10/26 11:43:44;;;;;;;1.67;0.98;;;;;;;10.33;39.78;100701.91;1671489;84;21082;-58
2021/10/26 11:46:17;;;;;;;3.77;1.65;;;;;;;10.33;39.39;100693.84;1654827;85;21081;-57
2021/10/26 11:49:07;;;;;;;3.33;0.95;;;;;;;10.35;39.38;100695.14;1684130;83;21104;-59
2021/10/26 11:51:41;;;;;;;1.80;1.10;;;;;;;10.36;39.18;100688.37;1671337;84;21136;-59
2021/10/26 11:54:18;;;;;;;8.65;1.20;;;;;;;10.38;39.37;100685.64;1660151;85;21196;-57
2021/10/26 11:56:51;;;;;;;2.67;1.07;;;;;;;10.41;39.53;100677.44;1671153;84;21773;-58